sensor_id;sensor_type;location;lat;lon;timestamp;temperature;humidity
31765;DHT22;18338;53.240;8.798;2023-02-03T00:01:51;8.50;99.90
31765;DHT22;18338;53.240;8.798;2023-02-03T00:04:18;8.40;99.90
31765;DHT22;18338;53.240;8.798;2023-02-03T00:06:45;8.50;99.90
31765;DHT22;18338;53.240;8.798;2023-02-03T00:09:12;8.50;99.90
31765;DHT22;18338;53.240;8.798;2023-02-03T00:11:40;8.50;99.90
31765;DHT22;18338;53.240;8.798;2023-02-03T00:14:09;8.50;99.90
31765;DHT22;18338;53.240;8.798;2023-02-03T00:16:36;8.50;99.90
31765;DHT22;18338;53.240;8.798;2023-02-03T00:19:03;8.50;99.90
31765;DHT22;18338;53.240;8.798;2023-02-03T00:21:30;8.50;99.90
31765;DHT22;18338;53.240;8.798;2023-02-03T00:23:56;8.60;99.90
31765;DHT22;18338;53.240;8.798;2023-02-03T00:26:23;8.50;99.90
31765;DHT22;18338;53.240;8.798;2023-02-03T00:28:51;8.50;99.90
31765;DHT22;18338;53.240;8.798;2023-02-03T00:31:20;8.60;99.90
31765;DHT22;18338;53.240;8.798;2023-02-03T00:33:55;8.50;99.90
31765;DHT22;18338;53.240;8.798;2023-02-03T00:36:23;8.60;99.90
31765;DHT22;18338;53.240;8.798;2023-02-03T00:38:51;8.60;99.90
31765;DHT22;18338;53.240;8.798;2023-02-03T00:41:19;8.50;99.90
31765;DHT22;18338;53.240;8.798;2023-02-03T00:43:47;8.60;99.90
31765;DHT22;18338;53.240;8.798;2023-02-03T00:46:15;8.60;99.90
31765;DHT22;18338;53.240;8.798;2023-02-03T00:48:42;8.50;99.90
31765;DHT22;18338;53.240;8.798;2023-02-03T00:51:09;8.60;99.90
31765;DHT22;18338;53.240;8.798;2023-02-03T00:53:36;8.60;99.90
31765;DHT22;18338;53.240;8.798;2023-02-03T00:56:03;8.60;99.90
31765;DHT22;18338;53.240;8.798;2023-02-03T00:58:39;8.50;99.90
31765;DHT22;18338;53.240;8.798;2023-02-03T01:01:07;8.50;99.90
31765;DHT22;18338;53.240;8.798;2023-02-03T01:03:34;8.50;99.90
31765;DHT22;18338;53.240;8.798;2023-02-03T01:06:19;8.50;99.90
31765;DHT22;18338;53.240;8.798;2023-02-03T01:08:46;8.60;99.90
31765;DHT22;18338;53.240;8.798;2023-02-03T01:11:19;8.60;99.90
31765;DHT22;18338;53.240;8.798;2023-02-03T01:13:46;8.60;99.90
31765;DHT22;18338;53.240;8.798;2023-02-03T01:16:16;8.60;99.90
31765;DHT22;18338;53.240;8.798;2023-02-03T01:18:44;8.50;99.90
31765;DHT22;18338;53.240;8.798;2023-02-03T01:21:22;8.60;99.90
31765;DHT22;18338;53.240;8.798;2023-02-03T01:23:50;8.60;99.90
31765;DHT22;18338;53.240;8.798;2023-02-03T01:26:19;8.60;99.90
31765;DHT22;18338;53.240;8.798;2023-02-03T01:28:53;8.60;99.90
31765;DHT22;18338;53.240;8.798;2023-02-03T01:31:27;8.60;99.90
31765;DHT22;18338;53.240;8.798;2023-02-03T01:33:54;8.60;99.90
31765;DHT22;18338;53.240;8.798;2023-02-03T01:36:23;8.60;99.90
31765;DHT22;18338;53.240;8.798;2023-02-03T01:38:50;8.50;99.90
31765;DHT22;18338;53.240;8.798;2023-02-03T01:41:24;8.60;99.90
31765;DHT22;18338;53.240;8.798;2023-02-03T01:43:53;8.60;99.90
31765;DHT22;18338;53.240;8.798;2023-02-03T01:46:45;8.50;99.90
31765;DHT22;18338;53.240;8.798;2023-02-03T01:49:26;8.60;99.90
31765;DHT22;18338;53.240;8.798;2023-02-03T01:51:54;8.50;99.90
31765;DHT22;18338;53.240;8.798;2023-02-03T01:54:25;8.50;99.90
31765;DHT22;18338;53.240;8.798;2023-02-03T01:56:58;8.50;99.90
31765;DHT22;18338;53.240;8.798;2023-02-03T01:59:27;8.40;99.90
31765;DHT22;18338;53.240;8.798;2023-02-03T02:01:57;8.40;99.90
31765;DHT22;18338;53.240;8.798;2023-02-03T02:04:40;8.40;99.90
31765;DHT22;18338;53.240;8.798;2023-02-03T02:07:08;8.50;99.90
31765;DHT22;18338;53.240;8.798;2023-02-03T02:09:35;8.50;99.90
31765;DHT22;18338;53.240;8.798;2023-02-03T02:12:02;8.50;99.90
31765;DHT22;18338;53.240;8.798;2023-02-03T02:14:29;8.50;99.90
31765;DHT22;18338;53.240;8.798;2023-02-03T02:17:13;8.50;99.90
31765;DHT22;18338;53.240;8.798;2023-02-03T02:22:26;8.50;99.90
31765;DHT22;18338;53.240;8.798;2023-02-03T02:31:29;8.60;99.90
31765;DHT22;18338;53.240;8.798;2023-02-03T02:34:12;8.60;99.90
31765;DHT22;18338;53.240;8.798;2023-02-03T02:37:18;8.60;99.90
31765;DHT22;18338;53.240;8.798;2023-02-03T02:40:06;8.60;99.90
31765;DHT22;18338;53.240;8.798;2023-02-03T02:43:06;8.60;99.90
31765;DHT22;18338;53.240;8.798;2023-02-03T02:45:49;8.60;99.90
31765;DHT22;18338;53.240;8.798;2023-02-03T02:48:39;8.70;99.90
31765;DHT22;18338;53.240;8.798;2023-02-03T02:51:09;8.60;99.90
31765;DHT22;18338;53.240;8.798;2023-02-03T02:53:54;8.60;99.90
31765;DHT22;18338;53.240;8.798;2023-02-03T02:56:23;8.60;99.90
31765;DHT22;18338;53.240;8.798;2023-02-03T02:58:52;8.50;99.90
31765;DHT22;18338;53.240;8.798;2023-02-03T03:01:20;8.50;99.90
31765;DHT22;18338;53.240;8.798;2023-02-03T03:03:47;8.50;99.90
31765;DHT22;18338;53.240;8.798;2023-02-03T03:06:22;8.50;99.90
31765;DHT22;18338;53.240;8.798;2023-02-03T03:09:08;8.50;99.90
31765;DHT22;18338;53.240;8.798;2023-02-03T03:11:44;8.60;99.90
31765;DHT22;18338;53.240;8.798;2023-02-03T03:14:15;8.60;99.90
31765;DHT22;18338;53.240;8.798;2023-02-03T03:16:49;8.60;99.90
31765;DHT22;18338;53.240;8.798;2023-02-03T03:19:31;8.60;99.90
31765;DHT22;18338;53.240;8.798;2023-02-03T03:22:01;8.70;99.90
31765;DHT22;18338;53.240;8.798;2023-02-03T03:24:41;8.70;99.90
31765;DHT22;18338;53.240;8.798;2023-02-03T03:27:25;8.60;99.90
31765;DHT22;18338;53.240;8.798;2023-02-03T03:30:01;8.70;99.90
31765;DHT22;18338;53.240;8.798;2023-02-03T03:32:30;8.70;99.90
31765;DHT22;18338;53.240;8.798;2023-02-03T03:35:01;8.70;99.90
31765;DHT22;18338;53.240;8.798;2023-02-03T03:37:37;8.70;99.90
31765;DHT22;18338;53.240;8.798;2023-02-03T03:40:19;8.70;99.90
31765;DHT22;18338;53.240;8.798;2023-02-03T03:42:51;8.70;99.90
31765;DHT22;18338;53.240;8.798;2023-02-03T03:49:00;8.70;99.90
31765;DHT22;18338;53.240;8.798;2023-02-03T03:51:39;8.70;99.90
31765;DHT22;18338;53.240;8.798;2023-02-03T03:54:09;8.70;99.90
31765;DHT22;18338;53.240;8.798;2023-02-03T03:56:59;8.70;99.90
31765;DHT22;18338;53.240;8.798;2023-02-03T03:59:29;8.70;99.90
31765;DHT22;18338;53.240;8.798;2023-02-03T04:01:58;8.70;99.90
31765;DHT22;18338;53.240;8.798;2023-02-03T04:04:32;8.80;99.90
31765;DHT22;18338;53.240;8.798;2023-02-03T04:07:01;8.80;99.90
31765;DHT22;18338;53.240;8.798;2023-02-03T04:09:28;8.80;99.90
31765;DHT22;18338;53.240;8.798;2023-02-03T04:11:54;8.80;99.90
31765;DHT22;18338;53.240;8.798;2023-02-03T04:14:33;8.80;99.90
31765;DHT22;18338;53.240;8.798;2023-02-03T04:17:00;8.90;99.90
31765;DHT22;18338;53.240;8.798;2023-02-03T04:19:27;8.80;99.90
31765;DHT22;18338;53.240;8.798;2023-02-03T04:21:54;8.80;99.90
31765;DHT22;18338;53.240;8.798;2023-02-03T04:24:20;8.80;99.90
31765;DHT22;18338;53.240;8.798;2023-02-03T04:26:47;8.70;99.90
31765;DHT22;18338;53.240;8.798;2023-02-03T04:29:14;8.70;99.90
31765;DHT22;18338;53.240;8.798;2023-02-03T04:31:40;8.70;99.90
31765;DHT22;18338;53.240;8.798;2023-02-03T04:34:07;8.70;99.90
31765;DHT22;18338;53.240;8.798;2023-02-03T04:36:34;8.70;99.90
31765;DHT22;18338;53.240;8.798;2023-02-03T04:39:01;8.60;99.90
31765;DHT22;18338;53.240;8.798;2023-02-03T04:41:28;8.60;99.90
31765;DHT22;18338;53.240;8.798;2023-02-03T04:43:54;8.50;99.90
31765;DHT22;18338;53.240;8.798;2023-02-03T04:46:21;8.40;99.90
31765;DHT22;18338;53.240;8.798;2023-02-03T04:48:48;8.40;99.90
31765;DHT22;18338;53.240;8.798;2023-02-03T04:51:14;8.40;99.90
31765;DHT22;18338;53.240;8.798;2023-02-03T04:53:41;8.40;99.90
31765;DHT22;18338;53.240;8.798;2023-02-03T04:56:08;8.40;99.90
31765;DHT22;18338;53.240;8.798;2023-02-03T04:58:36;8.50;99.90
31765;DHT22;18338;53.240;8.798;2023-02-03T05:01:07;8.40;99.90
31765;DHT22;18338;53.240;8.798;2023-02-03T05:03:36;8.50;99.90
31765;DHT22;18338;53.240;8.798;2023-02-03T05:06:03;8.40;99.90
31765;DHT22;18338;53.240;8.798;2023-02-03T05:08:31;8.40;99.90
31765;DHT22;18338;53.240;8.798;2023-02-03T05:10:57;8.50;99.90
31765;DHT22;18338;53.240;8.798;2023-02-03T05:13:27;8.50;99.90
31765;DHT22;18338;53.240;8.798;2023-02-03T05:15:54;8.50;99.90
31765;DHT22;18338;53.240;8.798;2023-02-03T05:18:21;8.60;99.90
31765;DHT22;18338;53.240;8.798;2023-02-03T05:20:48;8.60;99.90
31765;DHT22;18338;53.240;8.798;2023-02-03T05:23:14;8.60;99.90
31765;DHT22;18338;53.240;8.798;2023-02-03T05:25:42;8.60;99.90
31765;DHT22;18338;53.240;8.798;2023-02-03T05:28:09;8.50;99.90
31765;DHT22;18338;53.240;8.798;2023-02-03T05:30:36;8.50;99.90
31765;DHT22;18338;53.240;8.798;2023-02-03T05:33:03;8.50;99.90
31765;DHT22;18338;53.240;8.798;2023-02-03T05:35:30;8.50;99.90
31765;DHT22;18338;53.240;8.798;2023-02-03T05:37:56;8.50;99.90
31765;DHT22;18338;53.240;8.798;2023-02-03T05:40:25;8.50;99.90
31765;DHT22;18338;53.240;8.798;2023-02-03T05:43:10;8.50;99.90
31765;DHT22;18338;53.240;8.798;2023-02-03T05:45:38;8.50;99.90
31765;DHT22;18338;53.240;8.798;2023-02-03T05:48:06;8.50;99.90
31765;DHT22;18338;53.240;8.798;2023-02-03T05:50:34;8.50;99.90
31765;DHT22;18338;53.240;8.798;2023-02-03T05:53:04;8.40;99.90
31765;DHT22;18338;53.240;8.798;2023-02-03T05:55:32;8.40;99.90
31765;DHT22;18338;53.240;8.798;2023-02-03T05:58:00;8.50;99.90
31765;DHT22;18338;53.240;8.798;2023-02-03T06:00:28;8.60;99.90
31765;DHT22;18338;53.240;8.798;2023-02-03T06:03:00;8.60;99.90
31765;DHT22;18338;53.240;8.798;2023-02-03T06:05:29;8.50;99.90
31765;DHT22;18338;53.240;8.798;2023-02-03T06:07:56;8.50;99.90
31765;DHT22;18338;53.240;8.798;2023-02-03T06:10:25;8.60;99.90
31765;DHT22;18338;53.240;8.798;2023-02-03T06:12:53;8.60;99.90
31765;DHT22;18338;53.240;8.798;2023-02-03T06:15:19;8.60;99.90
31765;DHT22;18338;53.240;8.798;2023-02-03T06:17:47;8.60;99.90
31765;DHT22;18338;53.240;8.798;2023-02-03T06:20:16;8.60;99.90
31765;DHT22;18338;53.240;8.798;2023-02-03T06:22:44;8.60;99.90
31765;DHT22;18338;53.240;8.798;2023-02-03T06:25:11;8.60;99.90
31765;DHT22;18338;53.240;8.798;2023-02-03T06:27:39;8.60;99.90
31765;DHT22;18338;53.240;8.798;2023-02-03T06:30:07;8.70;99.90
31765;DHT22;18338;53.240;8.798;2023-02-03T06:32:34;8.70;99.90
31765;DHT22;18338;53.240;8.798;2023-02-03T06:35:01;8.70;99.90
31765;DHT22;18338;53.240;8.798;2023-02-03T06:37:27;8.70;99.90
31765;DHT22;18338;53.240;8.798;2023-02-03T06:39:54;8.70;99.90
31765;DHT22;18338;53.240;8.798;2023-02-03T06:42:21;8.80;99.90
31765;DHT22;18338;53.240;8.798;2023-02-03T06:44:47;8.80;99.90
31765;DHT22;18338;53.240;8.798;2023-02-03T06:47:15;8.90;99.90
31765;DHT22;18338;53.240;8.798;2023-02-03T06:49:42;9.00;99.90
31765;DHT22;18338;53.240;8.798;2023-02-03T06:52:08;9.00;99.90
31765;DHT22;18338;53.240;8.798;2023-02-03T06:54:35;9.10;99.90
31765;DHT22;18338;53.240;8.798;2023-02-03T06:57:02;9.20;99.90
31765;DHT22;18338;53.240;8.798;2023-02-03T06:59:29;9.20;99.90
31765;DHT22;18338;53.240;8.798;2023-02-03T07:01:56;9.20;99.90
31765;DHT22;18338;53.240;8.798;2023-02-03T07:04:23;9.30;99.90
31765;DHT22;18338;53.240;8.798;2023-02-03T07:06:49;9.30;99.90
31765;DHT22;18338;53.240;8.798;2023-02-03T07:09:16;9.30;99.90
31765;DHT22;18338;53.240;8.798;2023-02-03T07:11:43;9.40;99.90
31765;DHT22;18338;53.240;8.798;2023-02-03T07:14:09;9.40;99.90
31765;DHT22;18338;53.240;8.798;2023-02-03T07:16:36;9.40;99.90
31765;DHT22;18338;53.240;8.798;2023-02-03T07:19:03;9.50;99.90
31765;DHT22;18338;53.240;8.798;2023-02-03T07:21:31;9.50;99.90
31765;DHT22;18338;53.240;8.798;2023-02-03T07:23:57;9.50;99.90
31765;DHT22;18338;53.240;8.798;2023-02-03T07:26:25;9.50;99.90
31765;DHT22;18338;53.240;8.798;2023-02-03T07:28:52;9.50;99.90
31765;DHT22;18338;53.240;8.798;2023-02-03T07:31:20;9.50;99.90
31765;DHT22;18338;53.240;8.798;2023-02-03T07:33:47;9.60;99.90
31765;DHT22;18338;53.240;8.798;2023-02-03T07:36:14;9.60;99.90
31765;DHT22;18338;53.240;8.798;2023-02-03T07:38:42;9.60;99.90
31765;DHT22;18338;53.240;8.798;2023-02-03T07:41:09;9.60;99.90
31765;DHT22;18338;53.240;8.798;2023-02-03T07:43:35;9.60;99.90
31765;DHT22;18338;53.240;8.798;2023-02-03T07:46:02;9.60;99.90
31765;DHT22;18338;53.240;8.798;2023-02-03T07:48:29;9.60;99.90
31765;DHT22;18338;53.240;8.798;2023-02-03T07:50:57;9.60;99.90
31765;DHT22;18338;53.240;8.798;2023-02-03T07:53:24;9.60;99.90
31765;DHT22;18338;53.240;8.798;2023-02-03T07:55:51;9.70;99.90
31765;DHT22;18338;53.240;8.798;2023-02-03T07:58:18;9.70;99.90
31765;DHT22;18338;53.240;8.798;2023-02-03T08:00:45;9.70;99.90
31765;DHT22;18338;53.240;8.798;2023-02-03T08:03:12;9.80;99.90
31765;DHT22;18338;53.240;8.798;2023-02-03T08:05:39;9.80;99.90
31765;DHT22;18338;53.240;8.798;2023-02-03T08:08:06;9.70;99.90
31765;DHT22;18338;53.240;8.798;2023-02-03T08:10:34;9.60;99.90
31765;DHT22;18338;53.240;8.798;2023-02-03T08:13:01;9.50;99.90
31765;DHT22;18338;53.240;8.798;2023-02-03T08:15:28;9.40;99.90
31765;DHT22;18338;53.240;8.798;2023-02-03T08:17:55;9.30;99.90
31765;DHT22;18338;53.240;8.798;2023-02-03T08:20:24;9.20;99.90
31765;DHT22;18338;53.240;8.798;2023-02-03T08:22:51;9.20;99.90
31765;DHT22;18338;53.240;8.798;2023-02-03T08:25:18;9.20;99.90
31765;DHT22;18338;53.240;8.798;2023-02-03T08:27:48;9.10;99.90
31765;DHT22;18338;53.240;8.798;2023-02-03T08:30:15;9.20;99.90
31765;DHT22;18338;53.240;8.798;2023-02-03T08:32:41;9.20;99.90
31765;DHT22;18338;53.240;8.798;2023-02-03T08:38:11;9.20;99.90
31765;DHT22;18338;53.240;8.798;2023-02-03T08:40:49;9.20;99.90
31765;DHT22;18338;53.240;8.798;2023-02-03T08:43:17;9.20;99.90
31765;DHT22;18338;53.240;8.798;2023-02-03T08:45:46;9.30;99.90
31765;DHT22;18338;53.240;8.798;2023-02-03T08:48:20;9.30;99.90
31765;DHT22;18338;53.240;8.798;2023-02-03T08:50:47;9.30;99.90
31765;DHT22;18338;53.240;8.798;2023-02-03T08:53:18;9.30;99.90
31765;DHT22;18338;53.240;8.798;2023-02-03T08:55:53;8.90;99.90
31765;DHT22;18338;53.240;8.798;2023-02-03T08:58:23;8.50;99.90
31765;DHT22;18338;53.240;8.798;2023-02-03T09:00:52;8.20;99.90
31765;DHT22;18338;53.240;8.798;2023-02-03T09:03:27;8.00;99.90
31765;DHT22;18338;53.240;8.798;2023-02-03T09:05:54;8.00;99.90
31765;DHT22;18338;53.240;8.798;2023-02-03T09:08:23;7.90;99.90
31765;DHT22;18338;53.240;8.798;2023-02-03T09:10:50;7.90;99.90
31765;DHT22;18338;53.240;8.798;2023-02-03T09:13:16;8.00;99.90
31765;DHT22;18338;53.240;8.798;2023-02-03T09:15:43;8.10;99.90
31765;DHT22;18338;53.240;8.798;2023-02-03T09:18:10;8.40;99.90
31765;DHT22;18338;53.240;8.798;2023-02-03T09:20:37;8.50;99.90
31765;DHT22;18338;53.240;8.798;2023-02-03T09:23:04;8.70;99.90
31765;DHT22;18338;53.240;8.798;2023-02-03T09:25:32;8.80;99.90
31765;DHT22;18338;53.240;8.798;2023-02-03T09:28:00;8.90;99.90
31765;DHT22;18338;53.240;8.798;2023-02-03T09:30:28;9.00;99.90
31765;DHT22;18338;53.240;8.798;2023-02-03T09:32:55;9.00;99.90
31765;DHT22;18338;53.240;8.798;2023-02-03T09:35:22;9.20;99.90
31765;DHT22;18338;53.240;8.798;2023-02-03T09:37:49;9.30;99.90
31765;DHT22;18338;53.240;8.798;2023-02-03T09:40:27;9.40;99.90
31765;DHT22;18338;53.240;8.798;2023-02-03T09:45:29;9.50;99.90
31765;DHT22;18338;53.240;8.798;2023-02-03T09:48:05;9.70;99.90
31765;DHT22;18338;53.240;8.798;2023-02-03T09:50:35;9.90;99.90
31765;DHT22;18338;53.240;8.798;2023-02-03T09:53:11;10.10;99.90
31765;DHT22;18338;53.240;8.798;2023-02-03T09:55:42;10.10;99.90
31765;DHT22;18338;53.240;8.798;2023-02-03T10:00:42;10.10;99.90
31765;DHT22;18338;53.240;8.798;2023-02-03T10:06:47;10.50;99.90
31765;DHT22;18338;53.240;8.798;2023-02-03T10:17:49;11.10;99.90
31765;DHT22;18338;53.240;8.798;2023-02-03T10:20:24;11.20;99.90
31765;DHT22;18338;53.240;8.798;2023-02-03T10:22:56;10.80;99.90
31765;DHT22;18338;53.240;8.798;2023-02-03T10:25:43;11.00;99.90
31765;DHT22;18338;53.240;8.798;2023-02-03T10:28:23;11.40;99.90
31765;DHT22;18338;53.240;8.798;2023-02-03T10:30:57;11.30;99.90
31765;DHT22;18338;53.240;8.798;2023-02-03T10:33:26;11.00;99.90
31765;DHT22;18338;53.240;8.798;2023-02-03T10:39:00;11.00;99.90
31765;DHT22;18338;53.240;8.798;2023-02-03T10:41:30;10.90;99.90
31765;DHT22;18338;53.240;8.798;2023-02-03T10:44:06;10.60;99.90
31765;DHT22;18338;53.240;8.798;2023-02-03T10:46:37;10.60;99.90
31765;DHT22;18338;53.240;8.798;2023-02-03T10:49:05;10.50;99.90
31765;DHT22;18338;53.240;8.798;2023-02-03T10:51:39;10.30;99.90
31765;DHT22;18338;53.240;8.798;2023-02-03T10:57:00;10.40;99.90
31765;DHT22;18338;53.240;8.798;2023-02-03T10:59:30;10.40;99.90
31765;DHT22;18338;53.240;8.798;2023-02-03T11:01:59;10.40;99.90
31765;DHT22;18338;53.240;8.798;2023-02-03T11:04:29;10.40;99.90
31765;DHT22;18338;53.240;8.798;2023-02-03T11:07:00;10.30;99.90
31765;DHT22;18338;53.240;8.798;2023-02-03T11:09:38;10.30;99.90
31765;DHT22;18338;53.240;8.798;2023-02-03T11:12:17;10.50;99.90
31765;DHT22;18338;53.240;8.798;2023-02-03T11:14:47;10.50;99.90
31765;DHT22;18338;53.240;8.798;2023-02-03T11:17:22;10.80;99.90
31765;DHT22;18338;53.240;8.798;2023-02-03T11:19:52;11.10;99.90
31765;DHT22;18338;53.240;8.798;2023-02-03T11:22:34;11.10;99.90
31765;DHT22;18338;53.240;8.798;2023-02-03T11:25:04;10.90;99.90
31765;DHT22;18338;53.240;8.798;2023-02-03T11:27:42;11.30;99.90
31765;DHT22;18338;53.240;8.798;2023-02-03T11:32:47;12.30;99.90
31765;DHT22;18338;53.240;8.798;2023-02-03T11:35:20;11.40;99.90
31765;DHT22;18338;53.240;8.798;2023-02-03T11:37:53;10.90;99.90
31765;DHT22;18338;53.240;8.798;2023-02-03T11:45:25;11.00;99.90
31765;DHT22;18338;53.240;8.798;2023-02-03T11:50:59;11.20;99.90
31765;DHT22;18338;53.240;8.798;2023-02-03T11:59:23;10.10;99.90
31765;DHT22;18338;53.240;8.798;2023-02-03T12:02:22;10.30;99.90
31765;DHT22;18338;53.240;8.798;2023-02-03T12:05:03;10.30;99.90
31765;DHT22;18338;53.240;8.798;2023-02-03T12:13:33;10.00;99.90
31765;DHT22;18338;53.240;8.798;2023-02-03T12:26:40;10.30;99.90
31765;DHT22;18338;53.240;8.798;2023-02-03T12:29:24;10.50;99.90
31765;DHT22;18338;53.240;8.798;2023-02-03T12:32:02;10.50;99.90
31765;DHT22;18338;53.240;8.798;2023-02-03T12:34:58;10.40;99.90
31765;DHT22;18338;53.240;8.798;2023-02-03T12:37:26;10.20;99.90
31765;DHT22;18338;53.240;8.798;2023-02-03T12:39:57;9.90;99.90
31765;DHT22;18338;53.240;8.798;2023-02-03T12:56:30;9.70;99.90
31765;DHT22;18338;53.240;8.798;2023-02-03T12:59:07;9.70;99.90
31765;DHT22;18338;53.240;8.798;2023-02-03T13:02:01;9.70;99.90
31765;DHT22;18338;53.240;8.798;2023-02-03T13:04:50;9.70;99.90
31765;DHT22;18338;53.240;8.798;2023-02-03T13:07:51;9.60;99.90
31765;DHT22;18338;53.240;8.798;2023-02-03T13:10:27;9.50;99.90
31765;DHT22;18338;53.240;8.798;2023-02-03T13:12:57;9.50;99.90
31765;DHT22;18338;53.240;8.798;2023-02-03T13:15:42;9.50;99.90
31765;DHT22;18338;53.240;8.798;2023-02-03T13:18:51;9.50;99.90
31765;DHT22;18338;53.240;8.798;2023-02-03T13:21:19;9.40;99.90
31765;DHT22;18338;53.240;8.798;2023-02-03T13:23:48;9.40;99.90
31765;DHT22;18338;53.240;8.798;2023-02-03T13:29:21;9.30;99.90
31765;DHT22;18338;53.240;8.798;2023-02-03T13:32:13;9.30;99.90
31765;DHT22;18338;53.240;8.798;2023-02-03T13:42:56;9.20;99.90
31765;DHT22;18338;53.240;8.798;2023-02-03T13:45:30;9.20;99.90
31765;DHT22;18338;53.240;8.798;2023-02-03T13:48:12;9.20;99.90
31765;DHT22;18338;53.240;8.798;2023-02-03T13:50:41;9.20;99.90
31765;DHT22;18338;53.240;8.798;2023-02-03T13:53:21;9.20;99.90
31765;DHT22;18338;53.240;8.798;2023-02-03T13:55:56;9.20;99.90
31765;DHT22;18338;53.240;8.798;2023-02-03T14:06:53;9.00;99.90
31765;DHT22;18338;53.240;8.798;2023-02-03T14:08:58;9.10;99.90
31765;DHT22;18338;53.240;8.798;2023-02-03T14:16:42;9.00;99.90
31765;DHT22;18338;53.240;8.798;2023-02-03T14:19:11;8.90;99.90
31765;DHT22;18338;53.240;8.798;2023-02-03T14:24:15;8.90;99.90
31765;DHT22;18338;53.240;8.798;2023-02-03T14:26:44;8.90;99.90
31765;DHT22;18338;53.240;8.798;2023-02-03T14:29:29;8.80;99.90
31765;DHT22;18338;53.240;8.798;2023-02-03T14:32:04;8.80;99.90
31765;DHT22;18338;53.240;8.798;2023-02-03T14:34:48;8.80;99.90
31765;DHT22;18338;53.240;8.798;2023-02-03T14:37:29;8.70;99.90
31765;DHT22;18338;53.240;8.798;2023-02-03T14:42:49;8.70;99.90
31765;DHT22;18338;53.240;8.798;2023-02-03T14:52:06;8.70;99.90
31765;DHT22;18338;53.240;8.798;2023-02-03T14:55:03;8.60;99.90
31765;DHT22;18338;53.240;8.798;2023-02-03T14:57:45;8.60;99.90
31765;DHT22;18338;53.240;8.798;2023-02-03T15:07:58;8.60;99.90
31765;DHT22;18338;53.240;8.798;2023-02-03T15:10:41;8.70;99.90
31765;DHT22;18338;53.240;8.798;2023-02-03T15:13:28;8.60;99.90
31765;DHT22;18338;53.240;8.798;2023-02-03T15:16:03;8.60;99.90
31765;DHT22;18338;53.240;8.798;2023-02-03T15:18:36;8.60;99.90
31765;DHT22;18338;53.240;8.798;2023-02-03T15:21:03;8.60;99.90
31765;DHT22;18338;53.240;8.798;2023-02-03T15:23:39;8.60;99.90
31765;DHT22;18338;53.240;8.798;2023-02-03T15:26:13;8.50;99.90
31765;DHT22;18338;53.240;8.798;2023-02-03T15:28:49;8.60;99.90
31765;DHT22;18338;53.240;8.798;2023-02-03T15:31:30;8.50;99.90
31765;DHT22;18338;53.240;8.798;2023-02-03T15:34:16;8.50;99.90
31765;DHT22;18338;53.240;8.798;2023-02-03T15:36:48;8.50;99.90
31765;DHT22;18338;53.240;8.798;2023-02-03T15:39:41;8.50;99.90
31765;DHT22;18338;53.240;8.798;2023-02-03T15:42:54;8.40;99.90
31765;DHT22;18338;53.240;8.798;2023-02-03T15:45:41;8.40;99.90
31765;DHT22;18338;53.240;8.798;2023-02-03T15:51:36;8.40;99.90
31765;DHT22;18338;53.240;8.798;2023-02-03T15:54:16;8.30;99.90
31765;DHT22;18338;53.240;8.798;2023-02-03T15:57:10;8.30;99.90
31765;DHT22;18338;53.240;8.798;2023-02-03T15:59:45;8.30;99.90
31765;DHT22;18338;53.240;8.798;2023-02-03T16:02:19;8.30;99.90
31765;DHT22;18338;53.240;8.798;2023-02-03T16:04:50;8.30;99.90
31765;DHT22;18338;53.240;8.798;2023-02-03T16:07:23;8.30;99.90
31765;DHT22;18338;53.240;8.798;2023-02-03T16:09:52;8.20;99.90
31765;DHT22;18338;53.240;8.798;2023-02-03T16:12:33;8.20;99.90
31765;DHT22;18338;53.240;8.798;2023-02-03T16:15:03;8.20;99.90
31765;DHT22;18338;53.240;8.798;2023-02-03T16:17:38;8.20;99.90
31765;DHT22;18338;53.240;8.798;2023-02-03T16:20:27;8.20;99.90
31765;DHT22;18338;53.240;8.798;2023-02-03T16:23:25;8.10;99.90
31765;DHT22;18338;53.240;8.798;2023-02-03T16:26:06;8.10;99.90
31765;DHT22;18338;53.240;8.798;2023-02-03T16:28:35;8.20;99.90
31765;DHT22;18338;53.240;8.798;2023-02-03T16:31:24;8.10;99.90
31765;DHT22;18338;53.240;8.798;2023-02-03T16:34:25;8.10;99.90
31765;DHT22;18338;53.240;8.798;2023-02-03T16:37:42;8.10;99.90
31765;DHT22;18338;53.240;8.798;2023-02-03T16:40:33;8.10;99.90
31765;DHT22;18338;53.240;8.798;2023-02-03T16:43:18;8.10;99.90
31765;DHT22;18338;53.240;8.798;2023-02-03T16:46:10;8.10;99.90
31765;DHT22;18338;53.240;8.798;2023-02-03T16:48:58;8.10;99.90
31765;DHT22;18338;53.240;8.798;2023-02-03T16:51:43;8.10;99.90
31765;DHT22;18338;53.240;8.798;2023-02-03T16:54:12;8.10;99.90
31765;DHT22;18338;53.240;8.798;2023-02-03T16:56:40;8.10;99.90
31765;DHT22;18338;53.240;8.798;2023-02-03T16:59:24;8.10;99.90
31765;DHT22;18338;53.240;8.798;2023-02-03T17:01:51;8.10;99.90
31765;DHT22;18338;53.240;8.798;2023-02-03T17:04:18;8.10;99.90
31765;DHT22;18338;53.240;8.798;2023-02-03T17:06:45;8.10;99.90
31765;DHT22;18338;53.240;8.798;2023-02-03T17:09:22;8.00;99.90
31765;DHT22;18338;53.240;8.798;2023-02-03T17:11:50;8.00;99.90
31765;DHT22;18338;53.240;8.798;2023-02-03T17:14:57;8.00;99.90
31765;DHT22;18338;53.240;8.798;2023-02-03T17:17:38;8.00;99.90
31765;DHT22;18338;53.240;8.798;2023-02-03T17:20:06;8.00;99.90
31765;DHT22;18338;53.240;8.798;2023-02-03T17:22:33;8.00;99.90
31765;DHT22;18338;53.240;8.798;2023-02-03T17:25:25;7.90;99.90
31765;DHT22;18338;53.240;8.798;2023-02-03T17:27:58;7.90;99.90
31765;DHT22;18338;53.240;8.798;2023-02-03T17:30:33;7.70;99.90
31765;DHT22;18338;53.240;8.798;2023-02-03T17:33:07;7.60;99.90
31765;DHT22;18338;53.240;8.798;2023-02-03T17:36:15;7.60;99.90
31765;DHT22;18338;53.240;8.798;2023-02-03T17:38:48;7.50;99.90
31765;DHT22;18338;53.240;8.798;2023-02-03T17:41:36;7.40;99.90
31765;DHT22;18338;53.240;8.798;2023-02-03T17:44:20;7.40;99.90
31765;DHT22;18338;53.240;8.798;2023-02-03T17:47:04;7.50;99.90
31765;DHT22;18338;53.240;8.798;2023-02-03T18:09:13;7.60;99.90
31765;DHT22;18338;53.240;8.798;2023-02-03T18:11:45;7.60;99.90
31765;DHT22;18338;53.240;8.798;2023-02-03T18:14:26;7.60;99.90
31765;DHT22;18338;53.240;8.798;2023-02-03T18:24:29;7.60;99.90
31765;DHT22;18338;53.240;8.798;2023-02-03T18:27:12;7.60;99.90
31765;DHT22;18338;53.240;8.798;2023-02-03T18:29:46;7.60;99.90
31765;DHT22;18338;53.240;8.798;2023-02-03T18:32:49;7.60;99.90
31765;DHT22;18338;53.240;8.798;2023-02-03T18:35:32;7.70;99.90
31765;DHT22;18338;53.240;8.798;2023-02-03T18:38:51;7.70;99.90
31765;DHT22;18338;53.240;8.798;2023-02-03T18:41:36;7.70;99.90
31765;DHT22;18338;53.240;8.798;2023-02-03T18:44:07;7.70;99.90
31765;DHT22;18338;53.240;8.798;2023-02-03T18:46:34;7.70;99.90
31765;DHT22;18338;53.240;8.798;2023-02-03T18:49:02;7.70;99.90
31765;DHT22;18338;53.240;8.798;2023-02-03T18:51:35;7.70;99.90
31765;DHT22;18338;53.240;8.798;2023-02-03T18:54:03;7.70;99.90
31765;DHT22;18338;53.240;8.798;2023-02-03T18:56:30;7.60;99.90
31765;DHT22;18338;53.240;8.798;2023-02-03T18:59:06;7.60;99.90
31765;DHT22;18338;53.240;8.798;2023-02-03T19:01:34;7.60;99.90
31765;DHT22;18338;53.240;8.798;2023-02-03T19:04:04;7.60;99.90